Weather History for Washington, PA

Change the Weather History Date:

Sunday, November 18, 2012

  Actual Average Record
Temperature  
Mean Temperature 37 °F -  
Max Temperature 55 °F 47 °F 64 °F (2003)
Min Temperature 19 °F 30 °F 14 °F (2005)
Degree Days  
Heating Degree Days 28    
Moisture  
Dew Point 26 °F    
Average Humidity 71    
Maximum Humidity 100    
Minimum Humidity 38    
Precipitation  
Precipitation 0.00 in - - ()
Sea Level Pressure  
Sea Level Pressure 30.49 in    
Wind  
Wind Speed 1 mph (East)    
Max Wind Speed 9 mph    
Max Gust Speed -    
Visibility 10 miles    
Events      
Averages and records for this station are not official NWS values.
T = Trace of Precipitation, MM = Missing Value Source: NWS Daily Summary

Daily Weather History Graph

Daily Weather History Graph

Search for Another Location

Airport:

Trip Planner

Search our weather history database for the weather conditions in past years. The results will help you decide how hot, cold, wet, or windy it might be!

Date:

Astronomy

Nov. 18, 2012 Rise Set
Actual Time 7:10 AM EST 5:01 PM EST
Civil Twilight 6:41 AM EST 5:31 PM EST
Nautical Twilight 6:08 AM EST 6:04 PM EST
Astronomical Twilight 5:36 AM EST 6:36 PM EST
Moon 11:36 AM EST (11/18) 10:19 PM EST (11/18)
Length of Visible Light 10h 49m
Length of Day
9h 51m
Waxing Crescent, 30% of the Moon is Illuminated
Nov 18
Waxing Crescent
Nov 20
First Quarter
Nov 28
Full
Dec 6
Last Quarter
Dec 13
New

Hourly Weather History & Observations

Time (EST) Temp. Windchill Dew Point Humidity Pressure Visibility Wind Dir Wind Speed Gust Speed Precip Events Conditions
12:15 AM 24.8 °F - 21.2 °F 86% 30.52 in 10.0 mi Calm Calm - N/A   Clear
12:35 AM 24.8 °F - 21.2 °F 86% 30.52 in 10.0 mi Calm Calm - N/A   Clear
12:55 AM 26.6 °F - 23.0 °F 86% 30.52 in 10.0 mi Calm Calm - N/A   Clear
1:15 AM 24.8 °F - 19.4 °F 80% 30.52 in 10.0 mi Calm Calm - N/A   Clear
1:35 AM 24.8 °F - 21.2 °F 86% 30.52 in 10.0 mi Calm Calm - N/A   Clear
1:55 AM 24.8 °F - 21.2 °F 86% 30.52 in 10.0 mi Calm Calm - N/A   Clear
2:15 AM 24.8 °F - 23.0 °F 93% 30.52 in 10.0 mi Calm Calm - N/A   Clear
2:55 AM 21.2 °F - 19.4 °F 93% 30.52 in 9.0 mi Calm Calm - N/A   Clear
3:15 AM 24.8 °F 20.5 °F 19.4 °F 80% 30.52 in 10.0 mi ENE 3.5 mph - N/A   Clear
3:35 AM 21.2 °F - 19.4 °F 93% 30.52 in 10.0 mi Calm Calm - N/A   Clear
3:55 AM 24.8 °F - 23.0 °F 93% 30.52 in 10.0 mi Calm Calm - N/A   Clear
4:15 AM 23.0 °F - 23.0 °F 100% 30.52 in 10.0 mi Calm Calm - N/A   Clear
4:35 AM 21.2 °F - 19.4 °F 93% 30.52 in 10.0 mi Calm Calm - N/A   Clear
4:55 AM 21.2 °F - 19.4 °F 93% 30.52 in 10.0 mi Calm Calm - N/A   Clear
5:15 AM 21.2 °F - 21.2 °F 100% 30.52 in 9.0 mi Calm Calm - N/A   Clear
5:35 AM 21.2 °F - 21.2 °F 100% 30.52 in 8.0 mi Calm Calm - N/A   Clear
5:55 AM 23.0 °F - 21.2 °F 93% 30.52 in 10.0 mi Calm Calm - N/A   Clear
6:15 AM 21.2 °F - 19.4 °F 93% 30.52 in 10.0 mi Calm Calm - N/A   Clear
6:35 AM 21.2 °F - 19.4 °F 93% 30.52 in 10.0 mi Calm Calm - N/A   Clear
6:55 AM 21.2 °F - 19.4 °F 93% 30.52 in 10.0 mi Calm Calm - N/A   Clear
7:15 AM 21.2 °F - 19.4 °F 93% 30.52 in 8.0 mi Calm Calm - N/A   Clear
7:35 AM 19.4 °F - 17.6 °F 93% 30.53 in 8.0 mi Calm Calm - N/A   Clear
7:55 AM 23.0 °F - 21.2 °F 93% 30.53 in 9.0 mi Calm Calm - N/A   Clear
8:15 AM 24.8 °F - 23.0 °F 93% 30.53 in 10.0 mi Calm Calm - N/A   Clear
8:35 AM 28.4 °F - 26.6 °F 93% 30.53 in 9.0 mi Calm Calm - N/A   Clear
8:55 AM 28.4 °F - 26.6 °F 93% 30.53 in 9.0 mi Calm Calm - N/A   Clear
9:15 AM 32.0 °F - 30.2 °F 93% 30.53 in 10.0 mi Calm Calm - N/A   Clear
9:35 AM 35.6 °F - 30.2 °F 81% 30.53 in 10.0 mi Calm Calm - N/A   Clear
9:55 AM 41.0 °F - 30.2 °F 65% 30.53 in 10.0 mi Calm Calm - N/A   Clear
10:15 AM 44.6 °F - 32.0 °F 61% 30.53 in 10.0 mi Calm Calm - N/A   Clear
10:35 AM 46.4 °F 45.2 °F 30.2 °F 53% 30.52 in 10.0 mi ESE 3.5 mph - N/A   Clear
10:55 AM 48.2 °F - 30.2 °F 50% 30.52 in 10.0 mi ESE 6.9 mph - N/A   Clear
11:15 AM 48.2 °F - 30.2 °F 50% 30.52 in 10.0 mi East 6.9 mph - N/A   Clear
11:35 AM 50.0 °F - 30.2 °F 47% 30.51 in 10.0 mi East 6.9 mph - N/A   Clear
11:55 AM 51.8 °F - 32.0 °F 47% 30.50 in 10.0 mi East 9.2 mph - N/A   Clear
12:15 PM 51.8 °F - 30.2 °F 44% 30.49 in 10.0 mi East 6.9 mph - N/A   Clear
12:35 PM 51.8 °F - 30.2 °F 44% 30.49 in 10.0 mi ENE 4.6 mph - N/A   Clear
12:55 PM 53.6 °F - 30.2 °F 41% 30.47 in 10.0 mi East 6.9 mph - N/A   Clear
1:15 PM 53.6 °F - 30.2 °F 41% 30.47 in 10.0 mi SE 4.6 mph - N/A   Clear
1:35 PM 53.6 °F - 28.4 °F 38% 30.47 in 10.0 mi ESE 5.8 mph - N/A   Clear
1:55 PM 55.4 °F - 30.2 °F 38% 30.46 in 10.0 mi Calm Calm - N/A   Clear
2:15 PM 55.4 °F - 30.2 °F 38% 30.45 in 10.0 mi East 8.1 mph - N/A   Clear
2:35 PM 55.4 °F - 30.2 °F 38% 30.45 in 10.0 mi ESE 5.8 mph - N/A   Clear
2:55 PM 55.4 °F - 30.2 °F 38% 30.44 in 10.0 mi East 5.8 mph - N/A   Clear
3:15 PM 55.4 °F - 30.2 °F 38% 30.44 in 10.0 mi SE 4.6 mph - N/A   Clear
3:35 PM 55.4 °F - 30.2 °F 38% 30.44 in 10.0 mi East 4.6 mph - N/A   Clear
3:55 PM 55.4 °F - 30.2 °F 38% 30.45 in 10.0 mi East 6.9 mph - N/A   Clear
4:15 PM 53.6 °F - 30.2 °F 41% 30.45 in 10.0 mi East 5.8 mph - N/A   Clear
4:35 PM 53.6 °F - 28.4 °F 38% 30.45 in 10.0 mi ENE 4.6 mph - N/A   Clear
4:55 PM 51.8 °F - 28.4 °F 41% 30.45 in 10.0 mi Calm Calm - N/A   Clear
5:15 PM 46.4 °F 44.3 °F 30.2 °F 53% 30.44 in 10.0 mi East 4.6 mph - N/A   Clear
5:35 PM 44.6 °F - 30.2 °F 57% 30.44 in 10.0 mi Calm Calm - N/A   Clear
5:55 PM 41.0 °F - 30.2 °F 65% 30.45 in 10.0 mi Calm Calm - N/A   Clear
6:15 PM 41.0 °F - 28.4 °F 61% 30.45 in 10.0 mi Calm Calm - N/A   Clear
6:35 PM 37.4 °F 34.9 °F 28.4 °F 70% 30.45 in 10.0 mi NE 3.5 mph - N/A   Clear
6:55 PM 37.4 °F 34.9 °F 28.4 °F 70% 30.45 in 10.0 mi NE 3.5 mph - N/A   Clear
7:15 PM 37.4 °F - 26.6 °F 65% 30.46 in 10.0 mi Calm Calm - N/A   Clear
7:35 PM 35.6 °F - 28.4 °F 75% 30.46 in 10.0 mi Calm Calm - N/A   Clear
7:55 PM 33.8 °F - 26.6 °F 75% 30.46 in 10.0 mi Calm Calm - N/A   Clear
8:15 PM 35.6 °F - 28.4 °F 75% 30.45 in 10.0 mi Calm Calm - N/A   Clear
8:35 PM 33.8 °F - 26.6 °F 75% 30.45 in 10.0 mi Calm Calm - N/A   Clear
8:55 PM 35.6 °F - 26.6 °F 70% 30.45 in 10.0 mi Calm Calm - N/A   Clear
9:15 PM 33.8 °F - 26.6 °F 75% 30.45 in 10.0 mi Calm Calm - N/A   Clear
9:35 PM 33.8 °F - 26.6 °F 75% 30.45 in 10.0 mi Calm Calm - N/A   Clear
9:55 PM 30.2 °F - 24.8 °F 80% 30.45 in 10.0 mi Calm Calm - N/A   Clear
10:15 PM 30.2 °F - 26.6 °F 86% 30.44 in 10.0 mi Calm Calm - N/A   Clear
10:35 PM 30.2 °F - 24.8 °F 80% 30.44 in 10.0 mi Calm Calm - N/A   Clear
10:55 PM 30.2 °F - 26.6 °F 86% 30.43 in 10.0 mi Calm Calm - N/A   Clear
11:35 PM 28.4 °F - 26.6 °F 93% 30.44 in 10.0 mi Calm Calm - N/A   Clear